sensor_id;sensor_type;location;lat;lon;timestamp;pressure;altitude;pressure_sealevel;temperature;humidity
72308;BME280;60257;42.638;23.376;2022-08-23T00:00:44;94074.53;;;19.11;75.82
72308;BME280;60257;42.638;23.376;2022-08-23T00:03:11;94082.72;;;19.18;75.86
72308;BME280;60257;42.638;23.376;2022-08-23T00:05:36;94093.22;;;19.30;75.30
72308;BME280;60257;42.638;23.376;2022-08-23T00:08:02;94101.97;;;19.29;75.30
72308;BME280;60257;42.638;23.376;2022-08-23T00:10:27;94102.03;;;19.25;75.55
72308;BME280;60257;42.638;23.376;2022-08-23T00:12:53;94095.72;;;19.21;76.35
72308;BME280;60257;42.638;23.376;2022-08-23T00:15:19;94095.84;;;19.14;76.95
72308;BME280;60257;42.638;23.376;2022-08-23T00:17:45;94096.66;;;19.11;77.59
72308;BME280;60257;42.638;23.376;2022-08-23T00:20:13;94097.59;;;19.01;78.31
72308;BME280;60257;42.638;23.376;2022-08-23T00:22:39;94095.34;;;18.92;78.62
72308;BME280;60257;42.638;23.376;2022-08-23T00:25:09;94096.25;;;18.86;78.99
72308;BME280;60257;42.638;23.376;2022-08-23T00:27:35;94098.69;;;18.80;79.35
72308;BME280;60257;42.638;23.376;2022-08-23T00:30:02;94090.16;;;18.68;80.65
72308;BME280;60257;42.638;23.376;2022-08-23T00:32:31;94090.88;;;18.72;80.61
72308;BME280;60257;42.638;23.376;2022-08-23T00:34:58;94093.31;;;18.70;80.59
72308;BME280;60257;42.638;23.376;2022-08-23T00:37:26;94096.00;;;18.73;80.85
72308;BME280;60257;42.638;23.376;2022-08-23T00:39:52;94083.81;;;18.71;80.90
72308;BME280;60257;42.638;23.376;2022-08-23T00:42:42;94083.03;;;18.70;80.83
72308;BME280;60257;42.638;23.376;2022-08-23T00:48:20;94086.25;;;18.65;81.11
72308;BME280;60257;42.638;23.376;2022-08-23T00:50:55;94086.66;;;18.64;80.90
72308;BME280;60257;42.638;23.376;2022-08-23T00:53:28;94087.03;;;18.66;80.87
72308;BME280;60257;42.638;23.376;2022-08-23T00:55:59;94083.47;;;18.65;80.88
72308;BME280;60257;42.638;23.376;2022-08-23T00:58:25;94089.41;;;18.64;80.93
72308;BME280;60257;42.638;23.376;2022-08-23T01:00:52;94096.19;;;18.59;80.60
72308;BME280;60257;42.638;23.376;2022-08-23T01:03:21;94102.13;;;18.61;80.84
72308;BME280;60257;42.638;23.376;2022-08-23T01:05:57;94098.56;;;18.60;80.65
72308;BME280;60257;42.638;23.376;2022-08-23T01:08:27;94098.91;;;18.63;80.28
72308;BME280;60257;42.638;23.376;2022-08-23T01:11:21;94097.78;;;18.60;80.52
72308;BME280;60257;42.638;23.376;2022-08-23T01:13:47;94109.19;;;18.62;80.50
72308;BME280;60257;42.638;23.376;2022-08-23T01:16:43;94098.06;;;18.69;80.01
72308;BME280;60257;42.638;23.376;2022-08-23T01:19:32;94109.78;;;18.77;79.49
72308;BME280;60257;42.638;23.376;2022-08-23T01:22:06;94111.94;;;18.96;78.76
72308;BME280;60257;42.638;23.376;2022-08-23T01:24:36;94105.06;;;18.77;79.57
72308;BME280;60257;42.638;23.376;2022-08-23T01:27:02;94103.06;;;18.78;80.78
72308;BME280;60257;42.638;23.376;2022-08-23T01:29:29;94098.72;;;18.77;80.99
72308;BME280;60257;42.638;23.376;2022-08-23T01:31:54;94094.44;;;18.72;81.42
72308;BME280;60257;42.638;23.376;2022-08-23T01:34:25;94091.28;;;18.74;81.53
72308;BME280;60257;42.638;23.376;2022-08-23T01:36:51;94093.56;;;18.79;82.03
72308;BME280;60257;42.638;23.376;2022-08-23T01:39:17;94104.66;;;18.79;81.38
72308;BME280;60257;42.638;23.376;2022-08-23T01:41:42;94097.97;;;18.76;81.95
72308;BME280;60257;42.638;23.376;2022-08-23T01:44:08;94108.59;;;18.78;81.87
72308;BME280;60257;42.638;23.376;2022-08-23T01:46:34;94106.22;;;18.80;81.64
72308;BME280;60257;42.638;23.376;2022-08-23T01:49:02;94112.09;;;18.82;81.60
72308;BME280;60257;42.638;23.376;2022-08-23T01:51:28;94098.44;;;18.71;82.11
72308;BME280;60257;42.638;23.376;2022-08-23T01:53:54;94097.22;;;18.72;82.36
72308;BME280;60257;42.638;23.376;2022-08-23T01:56:20;94105.56;;;18.69;82.30
72308;BME280;60257;42.638;23.376;2022-08-23T01:58:49;94109.56;;;18.64;82.70
72308;BME280;60257;42.638;23.376;2022-08-23T02:01:15;94100.13;;;18.62;82.68
72308;BME280;60257;42.638;23.376;2022-08-23T02:03:41;94095.78;;;18.60;82.40
72308;BME280;60257;42.638;23.376;2022-08-23T02:06:07;94100.94;;;18.58;82.29
72308;BME280;60257;42.638;23.376;2022-08-23T02:08:32;94102.56;;;18.56;82.47
72308;BME280;60257;42.638;23.376;2022-08-23T02:11:19;94110.81;;;18.59;82.03
72308;BME280;60257;42.638;23.376;2022-08-23T02:13:46;94114.41;;;18.56;82.47
72308;BME280;60257;42.638;23.376;2022-08-23T02:16:12;94108.09;;;18.56;82.15
72308;BME280;60257;42.638;23.376;2022-08-23T02:18:45;94106.84;;;18.60;82.30
72308;BME280;60257;42.638;23.376;2022-08-23T02:21:10;94103.72;;;18.58;82.08
72308;BME280;60257;42.638;23.376;2022-08-23T02:23:36;94094.94;;;18.64;81.43
72308;BME280;60257;42.638;23.376;2022-08-23T02:26:01;94096.25;;;18.55;81.08
72308;BME280;60257;42.638;23.376;2022-08-23T02:28:27;94093.44;;;18.59;81.42
72308;BME280;60257;42.638;23.376;2022-08-23T02:30:52;94093.25;;;18.73;80.43
72308;BME280;60257;42.638;23.376;2022-08-23T02:33:18;94090.81;;;18.79;79.48
72308;BME280;60257;42.638;23.376;2022-08-23T02:35:44;94100.28;;;18.81;79.38
72308;BME280;60257;42.638;23.376;2022-08-23T02:38:11;94106.69;;;19.01;78.16
72308;BME280;60257;42.638;23.376;2022-08-23T02:40:38;94116.09;;;19.08;78.26
72308;BME280;60257;42.638;23.376;2022-08-23T02:43:05;94106.56;;;19.12;77.69
72308;BME280;60257;42.638;23.376;2022-08-23T02:45:31;94113.72;;;19.10;77.34
72308;BME280;60257;42.638;23.376;2022-08-23T02:47:57;94108.59;;;19.08;77.61
72308;BME280;60257;42.638;23.376;2022-08-23T02:50:24;94104.38;;;19.00;77.92
72308;BME280;60257;42.638;23.376;2022-08-23T02:52:50;94102.47;;;18.93;78.12
72308;BME280;60257;42.638;23.376;2022-08-23T02:55:15;94101.59;;;19.00;77.18
72308;BME280;60257;42.638;23.376;2022-08-23T02:57:41;94101.13;;;19.32;75.99
72308;BME280;60257;42.638;23.376;2022-08-23T03:00:09;94098.88;;;19.23;75.85
72308;BME280;60257;42.638;23.376;2022-08-23T03:02:36;94092.16;;;19.24;74.96
72308;BME280;60257;42.638;23.376;2022-08-23T03:05:03;94084.78;;;19.14;75.31
72308;BME280;60257;42.638;23.376;2022-08-23T03:07:29;94086.44;;;19.08;75.02
72308;BME280;60257;42.638;23.376;2022-08-23T03:09:55;94084.88;;;19.07;75.54
72308;BME280;60257;42.638;23.376;2022-08-23T03:12:21;94076.34;;;18.94;75.55
72308;BME280;60257;42.638;23.376;2022-08-23T03:14:48;94076.00;;;19.19;75.05
72308;BME280;60257;42.638;23.376;2022-08-23T03:17:16;94089.13;;;19.15;75.33
72308;BME280;60257;42.638;23.376;2022-08-23T03:19:42;94079.25;;;19.14;74.84
72308;BME280;60257;42.638;23.376;2022-08-23T03:22:07;94077.47;;;19.00;75.49
72308;BME280;60257;42.638;23.376;2022-08-23T03:24:33;94078.66;;;18.99;75.96
72308;BME280;60257;42.638;23.376;2022-08-23T03:27:01;94081.09;;;18.94;75.83
72308;BME280;60257;42.638;23.376;2022-08-23T03:29:27;94084.94;;;19.03;75.47
72308;BME280;60257;42.638;23.376;2022-08-23T03:31:53;94082.53;;;19.06;75.14
72308;BME280;60257;42.638;23.376;2022-08-23T03:34:19;94082.81;;;19.11;74.51
72308;BME280;60257;42.638;23.376;2022-08-23T03:36:44;94082.94;;;19.04;74.57
72308;BME280;60257;42.638;23.376;2022-08-23T03:39:10;94091.81;;;18.92;75.31
72308;BME280;60257;42.638;23.376;2022-08-23T03:41:36;94089.03;;;18.92;75.03
72308;BME280;60257;42.638;23.376;2022-08-23T03:44:02;94095.28;;;18.99;74.94
72308;BME280;60257;42.638;23.376;2022-08-23T03:46:28;94095.63;;;19.01;75.03
72308;BME280;60257;42.638;23.376;2022-08-23T03:48:58;94107.41;;;19.09;74.74
72308;BME280;60257;42.638;23.376;2022-08-23T03:51:26;94106.50;;;19.16;74.51
72308;BME280;60257;42.638;23.376;2022-08-23T03:53:53;94118.16;;;19.03;75.14
72308;BME280;60257;42.638;23.376;2022-08-23T03:56:30;94120.84;;;19.07;74.68
72308;BME280;60257;42.638;23.376;2022-08-23T03:58:58;94129.94;;;19.08;74.43
72308;BME280;60257;42.638;23.376;2022-08-23T04:01:24;94127.59;;;19.06;74.80
72308;BME280;60257;42.638;23.376;2022-08-23T04:03:49;94133.13;;;19.06;75.39
72308;BME280;60257;42.638;23.376;2022-08-23T04:06:16;94134.28;;;19.09;76.11
72308;BME280;60257;42.638;23.376;2022-08-23T04:08:42;94137.00;;;19.12;75.58
72308;BME280;60257;42.638;23.376;2022-08-23T04:11:09;94139.00;;;19.12;75.87
72308;BME280;60257;42.638;23.376;2022-08-23T04:13:37;94135.91;;;19.06;75.99
72308;BME280;60257;42.638;23.376;2022-08-23T04:16:03;94133.13;;;19.06;75.42
72308;BME280;60257;42.638;23.376;2022-08-23T04:18:30;94139.78;;;19.12;74.81
72308;BME280;60257;42.638;23.376;2022-08-23T04:20:57;94137.13;;;19.05;75.16
72308;BME280;60257;42.638;23.376;2022-08-23T04:23:24;94139.09;;;19.04;75.10
72308;BME280;60257;42.638;23.376;2022-08-23T04:25:49;94136.00;;;18.99;75.48
72308;BME280;60257;42.638;23.376;2022-08-23T04:28:15;94144.41;;;18.92;75.26
72308;BME280;60257;42.638;23.376;2022-08-23T04:30:40;94143.19;;;18.93;75.12
72308;BME280;60257;42.638;23.376;2022-08-23T04:33:06;94138.19;;;18.84;75.21
72308;BME280;60257;42.638;23.376;2022-08-23T04:35:33;94141.00;;;18.81;75.42
72308;BME280;60257;42.638;23.376;2022-08-23T04:37:58;94153.53;;;18.89;74.50
72308;BME280;60257;42.638;23.376;2022-08-23T04:40:23;94155.28;;;18.76;75.36
72308;BME280;60257;42.638;23.376;2022-08-23T04:43:08;94160.06;;;18.72;75.59
72308;BME280;60257;42.638;23.376;2022-08-23T04:45:36;94154.84;;;18.81;74.73
72308;BME280;60257;42.638;23.376;2022-08-23T04:48:03;94160.72;;;19.13;73.11
72308;BME280;60257;42.638;23.376;2022-08-23T04:50:28;94157.41;;;18.95;73.93
72308;BME280;60257;42.638;23.376;2022-08-23T04:52:54;94155.53;;;18.88;73.78
72308;BME280;60257;42.638;23.376;2022-08-23T04:55:19;94172.53;;;18.87;74.45
72308;BME280;60257;42.638;23.376;2022-08-23T04:57:46;94174.97;;;19.12;72.99
72308;BME280;60257;42.638;23.376;2022-08-23T05:00:12;94170.19;;;19.16;73.05
72308;BME280;60257;42.638;23.376;2022-08-23T05:02:39;94177.41;;;19.10;73.25
72308;BME280;60257;42.638;23.376;2022-08-23T05:05:06;94183.75;;;19.07;72.98
72308;BME280;60257;42.638;23.376;2022-08-23T05:07:32;94182.97;;;19.06;72.95
72308;BME280;60257;42.638;23.376;2022-08-23T05:09:57;94184.53;;;19.07;72.89
72308;BME280;60257;42.638;23.376;2022-08-23T05:12:23;94189.25;;;19.10;72.88
72308;BME280;60257;42.638;23.376;2022-08-23T05:14:48;94178.88;;;19.18;72.80
72308;BME280;60257;42.638;23.376;2022-08-23T05:17:14;94191.38;;;19.29;72.28
72308;BME280;60257;42.638;23.376;2022-08-23T05:19:39;94192.03;;;19.37;72.49
72308;BME280;60257;42.638;23.376;2022-08-23T05:22:05;94199.47;;;19.43;72.07
72308;BME280;60257;42.638;23.376;2022-08-23T05:24:30;94199.78;;;19.53;71.37
72308;BME280;60257;42.638;23.376;2022-08-23T05:26:56;94191.53;;;19.99;69.70
72308;BME280;60257;42.638;23.376;2022-08-23T05:29:21;94201.81;;;19.75;70.39
72308;BME280;60257;42.638;23.376;2022-08-23T05:31:47;94198.94;;;19.56;71.24
72308;BME280;60257;42.638;23.376;2022-08-23T05:34:12;94194.31;;;19.45;71.86
72308;BME280;60257;42.638;23.376;2022-08-23T05:36:38;94194.63;;;19.55;71.45
72308;BME280;60257;42.638;23.376;2022-08-23T05:39:04;94189.44;;;19.80;70.43
72308;BME280;60257;42.638;23.376;2022-08-23T05:41:30;94190.06;;;19.91;69.90
72308;BME280;60257;42.638;23.376;2022-08-23T05:43:55;94186.28;;;19.81;71.02
72308;BME280;60257;42.638;23.376;2022-08-23T05:46:21;94188.56;;;19.60;72.08
72308;BME280;60257;42.638;23.376;2022-08-23T05:48:48;94196.41;;;19.65;72.34
72308;BME280;60257;42.638;23.376;2022-08-23T05:51:26;94194.09;;;19.86;72.00
72308;BME280;60257;42.638;23.376;2022-08-23T05:53:54;94206.16;;;19.76;72.59
72308;BME280;60257;42.638;23.376;2022-08-23T05:56:23;94207.47;;;19.68;72.76
72308;BME280;60257;42.638;23.376;2022-08-23T05:58:52;94211.66;;;19.53;74.34
72308;BME280;60257;42.638;23.376;2022-08-23T06:01:18;94207.47;;;19.68;73.85
72308;BME280;60257;42.638;23.376;2022-08-23T06:03:44;94209.72;;;19.77;74.08
72308;BME280;60257;42.638;23.376;2022-08-23T06:06:11;94208.75;;;19.87;73.75
72308;BME280;60257;42.638;23.376;2022-08-23T06:08:37;94203.22;;;20.10;72.82
72308;BME280;60257;42.638;23.376;2022-08-23T06:11:11;94208.44;;;20.31;71.28
72308;BME280;60257;42.638;23.376;2022-08-23T06:13:39;94202.34;;;20.40;71.76
72308;BME280;60257;42.638;23.376;2022-08-23T06:16:06;94209.41;;;20.45;71.13
72308;BME280;60257;42.638;23.376;2022-08-23T06:18:32;94214.88;;;20.71;69.61
72308;BME280;60257;42.638;23.376;2022-08-23T06:21:09;94218.41;;;20.52;71.17
72308;BME280;60257;42.638;23.376;2022-08-23T06:23:36;94221.06;;;20.79;68.96
72308;BME280;60257;42.638;23.376;2022-08-23T06:26:13;94233.03;;;20.76;69.11
72308;BME280;60257;42.638;23.376;2022-08-23T06:28:40;94237.63;;;20.83;68.94
72308;BME280;60257;42.638;23.376;2022-08-23T06:31:06;94224.56;;;21.03;67.74
72308;BME280;60257;42.638;23.376;2022-08-23T06:33:32;94225.94;;;21.14;67.16
72308;BME280;60257;42.638;23.376;2022-08-23T06:36:09;94237.09;;;21.31;66.51
72308;BME280;60257;42.638;23.376;2022-08-23T06:38:35;94237.25;;;21.43;65.01
72308;BME280;60257;42.638;23.376;2022-08-23T06:41:06;94238.31;;;21.49;65.07
72308;BME280;60257;42.638;23.376;2022-08-23T06:43:33;94248.47;;;21.56;64.58
72308;BME280;60257;42.638;23.376;2022-08-23T06:46:22;94251.44;;;21.65;64.33
72308;BME280;60257;42.638;23.376;2022-08-23T06:48:48;94248.00;;;21.97;63.44
72308;BME280;60257;42.638;23.376;2022-08-23T06:51:22;94240.47;;;22.14;62.64
72308;BME280;60257;42.638;23.376;2022-08-23T06:53:48;94246.28;;;22.52;61.06
72308;BME280;60257;42.638;23.376;2022-08-23T06:56:13;94243.13;;;22.50;60.56
72308;BME280;60257;42.638;23.376;2022-08-23T06:58:40;94243.41;;;22.55;61.18
72308;BME280;60257;42.638;23.376;2022-08-23T07:01:10;94253.84;;;22.51;62.19
72308;BME280;60257;42.638;23.376;2022-08-23T07:03:36;94252.72;;;22.32;63.46
72308;BME280;60257;42.638;23.376;2022-08-23T07:06:01;94258.03;;;22.27;64.53
72308;BME280;60257;42.638;23.376;2022-08-23T07:08:26;94250.53;;;22.08;65.44
72308;BME280;60257;42.638;23.376;2022-08-23T07:10:55;94262.00;;;22.10;65.68
72308;BME280;60257;42.638;23.376;2022-08-23T07:13:21;94258.00;;;22.11;66.31
72308;BME280;60257;42.638;23.376;2022-08-23T07:15:47;94246.63;;;22.21;65.92
72308;BME280;60257;42.638;23.376;2022-08-23T07:18:12;94242.19;;;22.56;62.91
72308;BME280;60257;42.638;23.376;2022-08-23T07:20:38;94243.31;;;22.59;62.80
72308;BME280;60257;42.638;23.376;2022-08-23T07:23:04;94240.63;;;22.39;64.08
72308;BME280;60257;42.638;23.376;2022-08-23T07:25:30;94247.31;;;22.25;64.52
72308;BME280;60257;42.638;23.376;2022-08-23T07:27:57;94245.84;;;22.21;64.93
72308;BME280;60257;42.638;23.376;2022-08-23T07:30:23;94244.28;;;22.36;63.67
72308;BME280;60257;42.638;23.376;2022-08-23T07:32:48;94253.00;;;22.38;63.75
72308;BME280;60257;42.638;23.376;2022-08-23T07:35:14;94253.50;;;22.49;64.38
72308;BME280;60257;42.638;23.376;2022-08-23T07:37:40;94254.69;;;22.97;60.97
72308;BME280;60257;42.638;23.376;2022-08-23T07:40:07;94254.09;;;22.57;62.50
72308;BME280;60257;42.638;23.376;2022-08-23T07:42:33;94250.34;;;22.79;61.53
72308;BME280;60257;42.638;23.376;2022-08-23T07:44:58;94253.06;;;22.67;62.30
72308;BME280;60257;42.638;23.376;2022-08-23T07:47:23;94251.16;;;22.31;64.40
72308;BME280;60257;42.638;23.376;2022-08-23T07:49:49;94258.28;;;22.32;65.46
72308;BME280;60257;42.638;23.376;2022-08-23T07:52:15;94260.88;;;22.56;63.93
72308;BME280;60257;42.638;23.376;2022-08-23T07:54:41;94260.44;;;22.73;63.94
72308;BME280;60257;42.638;23.376;2022-08-23T07:57:06;94260.59;;;22.82;62.54
72308;BME280;60257;42.638;23.376;2022-08-23T07:59:32;94265.69;;;23.16;61.47
72308;BME280;60257;42.638;23.376;2022-08-23T08:01:58;94269.31;;;23.42;60.81
72308;BME280;60257;42.638;23.376;2022-08-23T08:04:23;94264.56;;;23.14;61.03
72308;BME280;60257;42.638;23.376;2022-08-23T08:06:49;94268.91;;;22.86;61.46
72308;BME280;60257;42.638;23.376;2022-08-23T08:09:16;94266.84;;;23.03;61.08
72308;BME280;60257;42.638;23.376;2022-08-23T08:11:46;94275.25;;;22.86;60.70
72308;BME280;60257;42.638;23.376;2022-08-23T08:14:13;94276.47;;;22.85;61.11
72308;BME280;60257;42.638;23.376;2022-08-23T08:16:48;94275.56;;;23.05;60.42
72308;BME280;60257;42.638;23.376;2022-08-23T08:19:16;94281.56;;;23.03;60.57
72308;BME280;60257;42.638;23.376;2022-08-23T08:21:42;94289.22;;;22.99;61.16
72308;BME280;60257;42.638;23.376;2022-08-23T08:24:12;94287.38;;;23.09;60.28
72308;BME280;60257;42.638;23.376;2022-08-23T08:26:39;94281.00;;;23.24;59.95
72308;BME280;60257;42.638;23.376;2022-08-23T08:29:06;94287.78;;;23.52;58.37
72308;BME280;60257;42.638;23.376;2022-08-23T08:31:34;94279.22;;;23.59;58.28
72308;BME280;60257;42.638;23.376;2022-08-23T08:34:02;94279.38;;;23.68;57.67
72308;BME280;60257;42.638;23.376;2022-08-23T08:38:56;94288.28;;;23.76;57.80
72308;BME280;60257;42.638;23.376;2022-08-23T08:46:54;94281.03;;;23.08;58.87
72308;BME280;60257;42.638;23.376;2022-08-23T08:49:34;94286.34;;;23.03;60.42
72308;BME280;60257;42.638;23.376;2022-08-23T08:52:27;94281.22;;;23.30;59.57
72308;BME280;60257;42.638;23.376;2022-08-23T08:55:43;94276.69;;;23.65;59.17
72308;BME280;60257;42.638;23.376;2022-08-23T08:57:50;94275.63;;;24.13;57.62
72308;BME280;60257;42.638;23.376;2022-08-23T09:00:20;94269.94;;;24.04;58.28
72308;BME280;60257;42.638;23.376;2022-08-23T09:02:46;94267.25;;;23.46;59.35
72308;BME280;60257;42.638;23.376;2022-08-23T09:05:16;94259.19;;;23.36;59.40
72308;BME280;60257;42.638;23.376;2022-08-23T09:13:53;94250.41;;;24.16;56.34
72308;BME280;60257;42.638;23.376;2022-08-23T09:16:49;94255.84;;;23.95;57.90
72308;BME280;60257;42.638;23.376;2022-08-23T09:19:15;94245.34;;;23.86;57.14
72308;BME280;60257;42.638;23.376;2022-08-23T09:24:51;94249.16;;;23.92;57.32
72308;BME280;60257;42.638;23.376;2022-08-23T09:27:16;94249.84;;;24.22;56.59
72308;BME280;60257;42.638;23.376;2022-08-23T09:29:54;94251.84;;;24.46;55.56
72308;BME280;60257;42.638;23.376;2022-08-23T09:32:36;94253.06;;;24.45;56.04
72308;BME280;60257;42.638;23.376;2022-08-23T09:35:07;94246.22;;;24.59;56.68
72308;BME280;60257;42.638;23.376;2022-08-23T09:37:46;94245.59;;;25.02;54.58
72308;BME280;60257;42.638;23.376;2022-08-23T09:40:18;94242.06;;;24.89;54.61
72308;BME280;60257;42.638;23.376;2022-08-23T09:42:44;94245.44;;;24.71;55.11
72308;BME280;60257;42.638;23.376;2022-08-23T09:45:30;94252.47;;;24.76;55.07
72308;BME280;60257;42.638;23.376;2022-08-23T09:47:56;94246.88;;;24.63;55.10
72308;BME280;60257;42.638;23.376;2022-08-23T09:50:29;94252.50;;;24.50;55.91
72308;BME280;60257;42.638;23.376;2022-08-23T09:53:02;94250.72;;;24.44;56.12
72308;BME280;60257;42.638;23.376;2022-08-23T09:55:30;94258.19;;;24.59;55.94
72308;BME280;60257;42.638;23.376;2022-08-23T09:57:58;94254.78;;;24.90;54.00
72308;BME280;60257;42.638;23.376;2022-08-23T10:00:30;94249.31;;;25.21;53.01
72308;BME280;60257;42.638;23.376;2022-08-23T10:03:21;94247.31;;;25.21;51.87
72308;BME280;60257;42.638;23.376;2022-08-23T10:05:53;94254.13;;;25.20;51.82
72308;BME280;60257;42.638;23.376;2022-08-23T10:08:32;94254.13;;;25.20;51.56
72308;BME280;60257;42.638;23.376;2022-08-23T10:11:11;94254.59;;;25.40;50.63
72308;BME280;60257;42.638;23.376;2022-08-23T10:13:40;94245.69;;;25.33;51.44
72308;BME280;60257;42.638;23.376;2022-08-23T10:16:13;94252.63;;;25.28;52.02
72308;BME280;60257;42.638;23.376;2022-08-23T10:18:45;94246.88;;;25.44;50.98
72308;BME280;60257;42.638;23.376;2022-08-23T10:27:41;94251.13;;;26.02;50.88
72308;BME280;60257;42.638;23.376;2022-08-23T10:30:37;94238.56;;;26.15;49.60
72308;BME280;60257;42.638;23.376;2022-08-23T10:33:23;94231.25;;;26.09;50.10
72308;BME280;60257;42.638;23.376;2022-08-23T10:36:06;94229.56;;;26.20;49.24
72308;BME280;60257;42.638;23.376;2022-08-23T10:47:16;94222.47;;;25.98;47.64
72308;BME280;60257;42.638;23.376;2022-08-23T10:49:47;94221.84;;;25.94;47.83
72308;BME280;60257;42.638;23.376;2022-08-23T10:52:21;94214.41;;;26.00;48.89
72308;BME280;60257;42.638;23.376;2022-08-23T10:54:52;94223.09;;;26.23;46.74
72308;BME280;60257;42.638;23.376;2022-08-23T10:57:35;94224.75;;;26.21;46.14
72308;BME280;60257;42.638;23.376;2022-08-23T11:00:05;94222.31;;;26.23;46.28
72308;BME280;60257;42.638;23.376;2022-08-23T11:05:07;94222.50;;;26.28;45.71
72308;BME280;60257;42.638;23.376;2022-08-23T11:07:41;94221.38;;;26.26;46.67
72308;BME280;60257;42.638;23.376;2022-08-23T11:10:12;94216.28;;;26.34;47.51
72308;BME280;60257;42.638;23.376;2022-08-23T11:12:55;94218.69;;;26.62;47.64
72308;BME280;60257;42.638;23.376;2022-08-23T11:21:01;94209.88;;;27.00;46.48
72308;BME280;60257;42.638;23.376;2022-08-23T11:26:02;94214.72;;;26.91;47.22
72308;BME280;60257;42.638;23.376;2022-08-23T11:28:37;94220.03;;;27.16;46.26
72308;BME280;60257;42.638;23.376;2022-08-23T11:33:42;94219.06;;;27.01;46.21
72308;BME280;60257;42.638;23.376;2022-08-23T11:41:22;94206.16;;;27.31;45.33
72308;BME280;60257;42.638;23.376;2022-08-23T11:52:11;94191.94;;;27.34;45.29
72308;BME280;60257;42.638;23.376;2022-08-23T12:03:05;94203.34;;;27.49;43.05
72308;BME280;60257;42.638;23.376;2022-08-23T12:32:11;94186.16;;;27.38;46.56
72308;BME280;60257;42.638;23.376;2022-08-23T12:37:36;94180.75;;;27.25;46.65
72308;BME280;60257;42.638;23.376;2022-08-23T12:40:07;94184.47;;;27.31;46.60
72308;BME280;60257;42.638;23.376;2022-08-23T12:42:38;94189.16;;;27.34;46.07
72308;BME280;60257;42.638;23.376;2022-08-23T12:47:30;94180.09;;;26.85;47.73
72308;BME280;60257;42.638;23.376;2022-08-23T12:50:07;94180.53;;;26.74;47.74
72308;BME280;60257;42.638;23.376;2022-08-23T12:52:35;94178.50;;;26.65;48.03
72308;BME280;60257;42.638;23.376;2022-08-23T12:55:01;94172.91;;;26.56;48.37
72308;BME280;60257;42.638;23.376;2022-08-23T13:00:07;94164.34;;;26.51;47.98
72308;BME280;60257;42.638;23.376;2022-08-23T13:02:38;94167.91;;;26.42;48.54
72308;BME280;60257;42.638;23.376;2022-08-23T13:05:14;94167.25;;;26.29;48.90
72308;BME280;60257;42.638;23.376;2022-08-23T13:07:41;94162.72;;;26.22;48.86
72308;BME280;60257;42.638;23.376;2022-08-23T13:10:09;94166.75;;;26.21;49.01
72308;BME280;60257;42.638;23.376;2022-08-23T13:12:35;94166.16;;;26.26;48.77
72308;BME280;60257;42.638;23.376;2022-08-23T13:15:02;94159.13;;;26.22;48.42
72308;BME280;60257;42.638;23.376;2022-08-23T13:17:35;94156.47;;;26.18;48.99
72308;BME280;60257;42.638;23.376;2022-08-23T13:22:32;94161.09;;;26.12;49.45
72308;BME280;60257;42.638;23.376;2022-08-23T13:27:27;94151.13;;;26.02;49.79
72308;BME280;60257;42.638;23.376;2022-08-23T13:32:49;94157.34;;;26.06;49.96
72308;BME280;60257;42.638;23.376;2022-08-23T13:35:39;94152.31;;;25.92;50.21
72308;BME280;60257;42.638;23.376;2022-08-23T13:38:15;94151.91;;;25.72;51.01
72308;BME280;60257;42.638;23.376;2022-08-23T13:43:21;94151.63;;;25.48;51.97
72308;BME280;60257;42.638;23.376;2022-08-23T13:45:51;94155.53;;;25.51;51.85
72308;BME280;60257;42.638;23.376;2022-08-23T13:48:49;94161.66;;;25.36;51.84
72308;BME280;60257;42.638;23.376;2022-08-23T13:51:18;94165.56;;;25.39;54.27
72308;BME280;60257;42.638;23.376;2022-08-23T13:53:45;94167.41;;;24.77;57.82
72308;BME280;60257;42.638;23.376;2022-08-23T13:56:12;94152.59;;;24.20;58.82
72308;BME280;60257;42.638;23.376;2022-08-23T13:58:38;94147.72;;;23.73;61.57
72308;BME280;60257;42.638;23.376;2022-08-23T14:01:12;94159.38;;;23.43;63.28
72308;BME280;60257;42.638;23.376;2022-08-23T14:03:39;94178.84;;;23.18;65.88
72308;BME280;60257;42.638;23.376;2022-08-23T14:06:05;94182.69;;;22.95;69.44
72308;BME280;60257;42.638;23.376;2022-08-23T14:08:31;94195.34;;;22.83;72.66
72308;BME280;60257;42.638;23.376;2022-08-23T14:10:56;94201.91;;;22.61;70.57
72308;BME280;60257;42.638;23.376;2022-08-23T14:13:27;94198.19;;;22.02;73.46
72308;BME280;60257;42.638;23.376;2022-08-23T14:15:53;94198.56;;;21.69;76.36
72308;BME280;60257;42.638;23.376;2022-08-23T14:18:20;94216.53;;;21.28;73.94
72308;BME280;60257;42.638;23.376;2022-08-23T14:20:46;94220.94;;;20.86;74.99
72308;BME280;60257;42.638;23.376;2022-08-23T14:23:12;94221.47;;;20.77;72.41
72308;BME280;60257;42.638;23.376;2022-08-23T14:25:37;94222.44;;;20.67;69.75
72308;BME280;60257;42.638;23.376;2022-08-23T14:28:03;94218.50;;;20.22;68.72
72308;BME280;60257;42.638;23.376;2022-08-23T14:30:31;94220.28;;;20.09;72.89
72308;BME280;60257;42.638;23.376;2022-08-23T14:32:58;94228.56;;;19.85;76.21
72308;BME280;60257;42.638;23.376;2022-08-23T14:35:24;94220.31;;;19.55;78.70
72308;BME280;60257;42.638;23.376;2022-08-23T14:37:49;94222.19;;;19.31;76.38
72308;BME280;60257;42.638;23.376;2022-08-23T14:40:15;94222.16;;;19.35;78.60
72308;BME280;60257;42.638;23.376;2022-08-23T14:42:42;94235.72;;;19.26;80.32
72308;BME280;60257;42.638;23.376;2022-08-23T14:45:08;94240.63;;;19.15;81.69
72308;BME280;60257;42.638;23.376;2022-08-23T14:47:34;94245.78;;;19.13;81.67
72308;BME280;60257;42.638;23.376;2022-08-23T14:50:02;94251.47;;;19.32;81.35
72308;BME280;60257;42.638;23.376;2022-08-23T14:52:28;94246.78;;;19.29;82.30
72308;BME280;60257;42.638;23.376;2022-08-23T14:54:53;94251.25;;;19.20;83.90